Time;durP1;ratioP1;P1;durP2;ratioP2;P2;SDS_P1;SDS_P2;PMS_P1;PMS_P2;Temp;Humidity;BMP_temperature;BMP_pressure;BME280_temperature;BME280_humidity;BME280_pressure;Samples;Min_cycle;Max_cycle;Signal;HPM_P1;HPM_P2
2024/01/06 00:00:36;;;;;;;206.20;56.55;;;;;;;;;;5011620;28;20414;-45
2024/01/06 00:03:02;;;;;;;202.88;55.70;;;;;;;;;;5003478;28;20751;-45
2024/01/06 00:05:28;;;;;;;206.02;57.47;;;;;;;;;;5007301;28;20180;-45
2024/01/06 00:07:54;;;;;;;203.87;55.30;;;;;;;;;;5008039;28;20188;-45
2024/01/06 00:10:20;;;;;;;203.20;55.80;;;;;;;;;;5003253;28;20425;-45
2024/01/06 00:12:48;;;;;;;202.70;54.28;;;;;;;;;;5003565;28;20440;-45
2024/01/06 00:15:14;;;;;;;205.73;57.17;;;;;;;;;;5003352;28;20251;-45
2024/01/06 00:17:40;;;;;;;206.02;57.50;;;;;;;;;;5011580;28;20187;-45
2024/01/06 00:20:06;;;;;;;205.02;55.97;;;;;;;;;;5011289;28;20181;-45
2024/01/06 00:22:32;;;;;;;199.50;55.80;;;;;;;;;;5011452;28;20197;-45
2024/01/06 00:24:59;;;;;;;201.07;54.77;;;;;;;;;;5011585;28;20216;-45
2024/01/06 00:27:25;;;;;;;204.32;55.42;;;;;;;;;;5011592;28;20485;-45
2024/01/06 00:29:51;;;;;;;205.43;56.50;;;;;;;;;;5011312;28;20566;-46
2024/01/06 00:32:17;;;;;;;206.93;57.13;;;;;;;;;;5003777;28;20422;-44
2024/01/06 00:34:43;;;;;;;202.77;55.43;;;;;;;;;;5003762;28;20214;-44
2024/01/06 00:37:09;;;;;;;203.67;54.80;;;;;;;;;;5011388;28;20460;-45
2024/01/06 00:39:35;;;;;;;150.30;43.28;;;;;;;;;;5011190;28;20545;-45
2024/01/06 00:42:01;;;;;;;198.50;55.10;;;;;;;;;;5011385;28;20287;-45
2024/01/06 00:44:27;;;;;;;200.93;54.60;;;;;;;;;;5011388;28;20443;-44
2024/01/06 00:46:53;;;;;;;203.33;56.57;;;;;;;;;;5011407;28;20905;-44
2024/01/06 00:49:19;;;;;;;126.27;36.93;;;;;;;;;;5011098;28;20791;-44
2024/01/06 00:51:45;;;;;;;194.97;56.57;;;;;;;;;;5003363;28;20413;-44
2024/01/06 00:54:11;;;;;;;205.17;56.50;;;;;;;;;;5014715;28;21077;-44
2024/01/06 00:56:37;;;;;;;206.13;58.47;;;;;;;;;;5011174;28;20410;-45
2024/01/06 00:59:03;;;;;;;204.93;55.97;;;;;;;;;;5011064;28;20168;-45
2024/01/06 01:01:29;;;;;;;206.27;57.23;;;;;;;;;;5011419;28;20210;-44
2024/01/06 01:03:55;;;;;;;205.70;57.30;;;;;;;;;;5011442;28;20441;-44
2024/01/06 01:06:21;;;;;;;207.27;57.93;;;;;;;;;;5014729;28;20413;-45
2024/01/06 01:08:47;;;;;;;205.38;56.55;;;;;;;;;;5017247;28;20411;-44
2024/01/06 01:11:13;;;;;;;205.30;55.80;;;;;;;;;;5014675;28;20685;-45
2024/01/06 01:13:39;;;;;;;204.20;55.40;;;;;;;;;;5014335;28;20969;-44
2024/01/06 01:16:05;;;;;;;206.37;58.60;;;;;;;;;;5006240;28;20178;-44
2024/01/06 01:18:31;;;;;;;210.20;61.75;;;;;;;;;;5006477;28;20844;-44
2024/01/06 01:20:57;;;;;;;202.10;55.87;;;;;;;;;;5014436;28;20214;-44
2024/01/06 01:23:23;;;;;;;201.13;56.60;;;;;;;;;;5014386;28;20965;-45
2024/01/06 01:25:49;;;;;;;203.32;57.03;;;;;;;;;;5014691;28;20505;-44
2024/01/06 01:28:15;;;;;;;190.67;53.97;;;;;;;;;;5014274;28;20592;-44
2024/01/06 01:30:41;;;;;;;205.17;56.97;;;;;;;;;;5013970;28;20768;-45
2024/01/06 01:33:07;;;;;;;205.40;57.17;;;;;;;;;;5012746;28;20431;-45
2024/01/06 01:35:33;;;;;;;186.48;53.72;;;;;;;;;;5007802;28;20450;-45
2024/01/06 01:37:59;;;;;;;201.30;57.43;;;;;;;;;;5006143;28;20176;-46
2024/01/06 01:40:25;;;;;;;199.98;56.92;;;;;;;;;;5005734;28;20411;-45
2024/01/06 01:42:51;;;;;;;200.93;56.65;;;;;;;;;;5006602;28;20571;-44
2024/01/06 01:45:17;;;;;;;200.37;57.10;;;;;;;;;;5010403;28;20184;-45
2024/01/06 01:47:45;;;;;;;196.63;56.37;;;;;;;;;;5008865;28;20416;-44
2024/01/06 01:50:12;;;;;;;196.40;57.38;;;;;;;;;;5011615;28;20508;-45
2024/01/06 01:52:38;;;;;;;200.15;56.10;;;;;;;;;;5007689;28;20216;-45
2024/01/06 01:55:05;;;;;;;199.55;57.08;;;;;;;;;;5013728;28;20289;-45
2024/01/06 01:57:31;;;;;;;190.13;54.58;;;;;;;;;;5013791;28;20175;-45
2024/01/06 01:59:57;;;;;;;199.65;55.08;;;;;;;;;;5013336;28;20701;-47
2024/01/06 02:02:23;;;;;;;199.77;56.42;;;;;;;;;;5005134;28;20245;-45
2024/01/06 02:04:49;;;;;;;196.32;55.65;;;;;;;;;;5005831;28;20181;-45
2024/01/06 02:07:15;;;;;;;198.57;57.70;;;;;;;;;;5009271;28;20174;-45
2024/01/06 02:09:41;;;;;;;197.50;55.90;;;;;;;;;;5007235;28;20273;-45
2024/01/06 02:12:07;;;;;;;201.87;58.07;;;;;;;;;;5005108;28;20187;-45
2024/01/06 02:14:33;;;;;;;197.98;57.53;;;;;;;;;;5004085;28;20479;-44
2024/01/06 02:16:59;;;;;;;197.10;55.50;;;;;;;;;;5013389;28;20623;-44
2024/01/06 02:19:25;;;;;;;196.83;54.77;;;;;;;;;;5013087;28;20406;-45
2024/01/06 02:21:53;;;;;;;177.83;52.87;;;;;;;;;;5013340;28;20439;-44
2024/01/06 02:24:19;;;;;;;191.10;56.10;;;;;;;;;;5013045;28;20488;-44
2024/01/06 02:26:45;;;;;;;195.47;55.27;;;;;;;;;;5013259;28;20190;-45
2024/01/06 02:29:10;;;;;;;200.10;56.90;;;;;;;;;;5010927;28;20437;-46
2024/01/06 02:31:36;;;;;;;200.37;56.70;;;;;;;;;;5007072;28;20463;-44
2024/01/06 02:34:02;;;;;;;200.50;58.57;;;;;;;;;;5004674;28;20462;-44
2024/01/06 02:36:28;;;;;;;201.53;59.00;;;;;;;;;;5004988;28;20417;-45
2024/01/06 02:38:54;;;;;;;200.07;56.30;;;;;;;;;;5005427;28;20444;-44
2024/01/06 02:41:20;;;;;;;199.97;56.77;;;;;;;;;;5009563;28;20426;-45
2024/01/06 02:43:47;;;;;;;199.80;55.87;;;;;;;;;;5007849;28;20438;-45
2024/01/06 02:46:13;;;;;;;188.10;54.47;;;;;;;;;;5012825;28;20589;-45
2024/01/06 02:48:39;;;;;;;207.23;61.60;;;;;;;;;;5012728;28;20275;-45
2024/01/06 02:51:05;;;;;;;202.47;56.70;;;;;;;;;;5004692;28;20460;-45
2024/01/06 02:53:31;;;;;;;201.90;57.35;;;;;;;;;;5004374;28;20442;-45
2024/01/06 02:55:57;;;;;;;202.23;55.43;;;;;;;;;;5013078;28;20593;-44
2024/01/06 02:58:23;;;;;;;203.70;57.17;;;;;;;;;;5012523;28;20418;-44
2024/01/06 03:00:49;;;;;;;198.83;56.60;;;;;;;;;;5018976;28;20434;-44
2024/01/06 03:03:15;;;;;;;201.07;56.10;;;;;;;;;;5012321;28;20438;-45
2024/01/06 03:05:41;;;;;;;205.80;59.20;;;;;;;;;;5012472;28;20415;-44
2024/01/06 03:08:07;;;;;;;205.33;56.63;;;;;;;;;;5012514;28;20913;-44
2024/01/06 03:10:34;;;;;;;204.80;57.58;;;;;;;;;;5008574;28;20873;-44
2024/01/06 03:13:00;;;;;;;202.73;55.40;;;;;;;;;;5012251;28;20690;-45
2024/01/06 03:15:26;;;;;;;202.73;56.97;;;;;;;;;;5012236;28;20672;-44
2024/01/06 03:17:52;;;;;;;204.73;57.42;;;;;;;;;;5012193;28;20301;-44
2024/01/06 03:20:18;;;;;;;203.30;55.42;;;;;;;;;;5009095;28;20176;-45
2024/01/06 03:22:44;;;;;;;204.07;56.77;;;;;;;;;;5007191;28;20702;-44
2024/01/06 03:25:10;;;;;;;203.73;56.53;;;;;;;;;;5003594;28;20399;-44
2024/01/06 03:27:36;;;;;;;204.50;56.83;;;;;;;;;;5012505;28;20183;-45
2024/01/06 03:30:03;;;;;;;205.30;57.40;;;;;;;;;;5011943;28;20651;-45
2024/01/06 03:32:29;;;;;;;206.38;58.20;;;;;;;;;;5012027;28;20944;-44
2024/01/06 03:34:55;;;;;;;204.88;56.88;;;;;;;;;;5012024;28;20685;-44
2024/01/06 03:37:22;;;;;;;205.07;58.03;;;;;;;;;;5012053;28;20214;-45
2024/01/06 03:39:48;;;;;;;205.77;56.38;;;;;;;;;;5004789;28;20431;-45
2024/01/06 03:42:14;;;;;;;207.63;59.77;;;;;;;;;;5008355;28;20179;-45
2024/01/06 03:44:40;;;;;;;184.57;53.10;;;;;;;;;;5006190;28;20419;-44
2024/01/06 03:47:06;;;;;;;204.07;57.80;;;;;;;;;;5003941;28;20620;-44
2024/01/06 03:49:32;;;;;;;204.60;55.33;;;;;;;;;;5003550;28;20417;-45
2024/01/06 03:51:58;;;;;;;203.37;55.30;;;;;;;;;;5011318;28;20569;-45
2024/01/06 03:54:24;;;;;;;206.40;56.65;;;;;;;;;;5003864;28;20540;-44
2024/01/06 03:56:50;;;;;;;201.57;54.70;;;;;;;;;;5004689;28;20181;-45
2024/01/06 03:59:16;;;;;;;203.63;54.90;;;;;;;;;;5008135;28;20440;-44
2024/01/06 04:01:42;;;;;;;203.30;55.17;;;;;;;;;;5006436;28;20170;-44
2024/01/06 04:04:08;;;;;;;202.30;54.53;;;;;;;;;;5012128;28;20824;-44
2024/01/06 04:06:34;;;;;;;205.63;56.72;;;;;;;;;;5017162;28;20443;-45
2024/01/06 04:09:01;;;;;;;202.55;53.40;;;;;;;;;;5029756;28;20711;-45
2024/01/06 04:11:27;;;;;;;174.32;50.03;;;;;;;;;;5011950;28;20177;-44
2024/01/06 04:13:53;;;;;;;151.50;43.77;;;;;;;;;;5011984;28;20213;-44
2024/01/06 04:16:20;;;;;;;180.23;51.50;;;;;;;;;;4998621;28;20409;-45
2024/01/06 04:18:46;;;;;;;190.05;53.03;;;;;;;;;;5001026;28;20454;-44
2024/01/06 04:21:12;;;;;;;201.33;55.13;;;;;;;;;;5007079;28;20169;-44
2024/01/06 04:23:38;;;;;;;207.00;56.60;;;;;;;;;;4992751;28;20435;-44
2024/01/06 04:26:05;;;;;;;183.05;48.15;;;;;;;;;;5011815;28;20506;-45
2024/01/06 04:28:31;;;;;;;206.45;57.90;;;;;;;;;;4994632;28;20170;-45
2024/01/06 04:30:57;;;;;;;151.20;41.88;;;;;;;;;;5004790;28;20608;-44
2024/01/06 04:33:22;;;;;;;200.05;53.80;;;;;;;;;;5002930;28;20273;-44
2024/01/06 04:35:50;;;;;;;197.50;52.73;;;;;;;;;;4996403;28;20204;-45
2024/01/06 04:38:16;;;;;;;194.98;51.75;;;;;;;;;;5013808;28;20429;-43
2024/01/06 04:40:43;;;;;;;196.67;52.37;;;;;;;;;;4995754;28;20668;-44
2024/01/06 04:43:09;;;;;;;198.70;51.15;;;;;;;;;;5012273;28;20510;-44
2024/01/06 04:45:36;;;;;;;199.63;50.90;;;;;;;;;;5002707;28;20264;-45
2024/01/06 04:48:03;;;;;;;200.50;51.30;;;;;;;;;;5004551;28;20436;-45
2024/01/06 04:50:29;;;;;;;200.95;52.67;;;;;;;;;;5010320;28;20174;-44
2024/01/06 04:52:55;;;;;;;197.82;53.08;;;;;;;;;;5010148;28;20212;-44
2024/01/06 04:55:21;;;;;;;200.50;52.67;;;;;;;;;;5015051;28;20208;-45
2024/01/06 04:57:47;;;;;;;200.43;53.20;;;;;;;;;;4998747;28;20441;-46
2024/01/06 05:00:13;;;;;;;173.17;47.90;;;;;;;;;;5007191;28;20422;-46
2024/01/06 05:02:39;;;;;;;202.55;53.38;;;;;;;;;;5006719;28;20424;-46
2024/01/06 05:05:05;;;;;;;200.03;52.40;;;;;;;;;;4999749;28;20291;-44
2024/01/06 05:07:31;;;;;;;142.03;40.23;;;;;;;;;;5014653;28;20429;-45
2024/01/06 05:09:57;;;;;;;197.40;52.30;;;;;;;;;;4995673;28;20419;-45
2024/01/06 05:12:22;;;;;;;200.15;53.33;;;;;;;;;;5010707;28;20432;-45
2024/01/06 05:14:48;;;;;;;199.70;52.83;;;;;;;;;;5002871;28;20704;-46
2024/01/06 05:17:14;;;;;;;197.97;52.13;;;;;;;;;;5002619;28;20794;-45
2024/01/06 05:19:40;;;;;;;190.93;55.93;;;;;;;;;;5010818;28;20408;-45
2024/01/06 05:22:06;;;;;;;174.83;48.37;;;;;;;;;;4994903;28;20404;-46
2024/01/06 05:24:32;;;;;;;189.90;51.20;;;;;;;;;;5014129;28;20411;-46
2024/01/06 05:26:58;;;;;;;198.20;53.60;;;;;;;;;;4999368;28;20769;-46
2024/01/06 05:29:25;;;;;;;149.73;45.83;;;;;;;;;;5005529;28;20411;-45
2024/01/06 05:31:51;;;;;;;71.72;38.85;;;;;;;;;;5007279;28;20758;-45
2024/01/06 05:34:17;;;;;;;132.35;41.22;;;;;;;;;;4997563;28;20197;-46
2024/01/06 05:36:43;;;;;;;187.27;51.80;;;;;;;;;;5014814;28;20184;-46
2024/01/06 05:39:10;;;;;;;175.83;51.80;;;;;;;;;;4995262;28;20495;-47
2024/01/06 05:41:39;;;;;;;150.85;43.90;;;;;;;;;;5009306;28;20454;-45
2024/01/06 05:44:05;;;;;;;182.80;58.45;;;;;;;;;;5002814;28;20197;-46
2024/01/06 05:46:31;;;;;;;187.02;52.63;;;;;;;;;;5001535;28;20177;-45
2024/01/06 05:48:57;;;;;;;154.40;45.60;;;;;;;;;;5010946;28;20196;-45
2024/01/06 05:51:23;;;;;;;185.10;53.27;;;;;;;;;;4997433;28;20434;-46
2024/01/06 05:53:49;;;;;;;179.20;54.92;;;;;;;;;;5013146;28;20462;-44
2024/01/06 05:56:24;;;;;;;199.77;55.63;;;;;;;;;;4999230;28;20174;-43
2024/01/06 05:58:50;;;;;;;202.68;56.00;;;;;;;;;;5005811;28;20173;-45
2024/01/06 06:01:16;;;;;;;200.27;54.50;;;;;;;;;;5006093;28;20348;-45
2024/01/06 06:03:43;;;;;;;197.82;55.17;;;;;;;;;;4997586;28;20431;-45
2024/01/06 06:06:09;;;;;;;176.40;52.58;;;;;;;;;;5013678;28;20165;-45
2024/01/06 06:08:34;;;;;;;204.40;57.73;;;;;;;;;;4998027;28;20675;-45
2024/01/06 06:11:01;;;;;;;200.55;55.45;;;;;;;;;;5010562;28;20443;-45
2024/01/06 06:13:28;;;;;;;199.77;54.55;;;;;;;;;;5013473;28;20186;-45
2024/01/06 06:15:54;;;;;;;198.88;56.05;;;;;;;;;;5009942;28;20550;-44
2024/01/06 06:18:20;;;;;;;190.85;57.97;;;;;;;;;;5005779;28;20178;-46
2024/01/06 06:20:47;;;;;;;199.05;57.08;;;;;;;;;;5006636;28;20177;-44
2024/01/06 06:23:13;;;;;;;165.00;53.83;;;;;;;;;;5011996;28;20201;-44
2024/01/06 06:25:39;;;;;;;123.63;44.33;;;;;;;;;;5013276;28;20188;-44
2024/01/06 06:28:06;;;;;;;196.48;56.05;;;;;;;;;;5011948;28;20223;-44
2024/01/06 06:30:32;;;;;;;195.73;57.05;;;;;;;;;;5006371;28;20172;-43
2024/01/06 06:32:58;;;;;;;193.07;55.80;;;;;;;;;;5005457;28;20200;-46
2024/01/06 06:35:24;;;;;;;179.82;56.83;;;;;;;;;;5004898;28;20495;-45
2024/01/06 06:37:50;;;;;;;192.65;54.55;;;;;;;;;;5013078;28;20182;-45
2024/01/06 06:40:16;;;;;;;197.97;54.40;;;;;;;;;;5012834;28;20711;-45
2024/01/06 06:42:42;;;;;;;199.47;56.10;;;;;;;;;;5012830;28;20942;-46
2024/01/06 06:45:11;;;;;;;200.20;56.00;;;;;;;;;;5012840;28;20457;-45
2024/01/06 06:47:37;;;;;;;197.00;54.95;;;;;;;;;;5012772;28;20186;-45
2024/01/06 06:50:03;;;;;;;201.37;56.70;;;;;;;;;;5011849;28;20351;-47
2024/01/06 06:52:29;;;;;;;198.90;54.90;;;;;;;;;;5005623;28;20858;-45
2024/01/06 06:54:55;;;;;;;199.07;54.53;;;;;;;;;;5004541;28;20235;-45
2024/01/06 06:57:21;;;;;;;180.57;55.70;;;;;;;;;;5004475;28;20411;-46
2024/01/06 06:59:47;;;;;;;199.70;56.27;;;;;;;;;;5005082;28;20200;-45
2024/01/06 07:02:13;;;;;;;170.88;49.38;;;;;;;;;;5009165;28;20451;-46
2024/01/06 07:04:39;;;;;;;199.57;55.80;;;;;;;;;;5003885;28;20675;-45
2024/01/06 07:07:05;;;;;;;200.57;55.47;;;;;;;;;;5009127;28;20961;-46
2024/01/06 07:09:31;;;;;;;202.37;54.77;;;;;;;;;;5005433;28;20180;-44
2024/01/06 07:11:57;;;;;;;202.10;57.30;;;;;;;;;;5004279;28;20867;-44
2024/01/06 07:14:23;;;;;;;195.77;56.60;;;;;;;;;;5004054;28;20657;-46
2024/01/06 07:16:49;;;;;;;196.93;55.47;;;;;;;;;;5014454;28;20407;-44
2024/01/06 07:19:15;;;;;;;202.30;56.33;;;;;;;;;;5005351;28;20181;-44
2024/01/06 07:21:41;;;;;;;201.33;56.30;;;;;;;;;;5007514;28;20197;-44
2024/01/06 07:24:07;;;;;;;201.47;55.87;;;;;;;;;;5009944;28;20499;-44
2024/01/06 07:26:33;;;;;;;202.70;55.53;;;;;;;;;;5006768;28;20415;-45
2024/01/06 07:28:59;;;;;;;201.97;55.10;;;;;;;;;;5005073;28;20408;-44
2024/01/06 07:31:25;;;;;;;192.67;55.30;;;;;;;;;;5005646;28;20776;-45
2024/01/06 07:33:50;;;;;;;201.33;55.47;;;;;;;;;;5013380;28;20453;-45
2024/01/06 07:36:17;;;;;;;204.87;57.37;;;;;;;;;;5013166;28;20411;-43
2024/01/06 07:38:45;;;;;;;196.88;56.08;;;;;;;;;;5011360;28;20844;-45
2024/01/06 07:41:11;;;;;;;207.65;58.85;;;;;;;;;;5011316;28;20598;-44
2024/01/06 07:43:37;;;;;;;203.20;56.57;;;;;;;;;;5011287;28;20283;-45
2024/01/06 07:46:03;;;;;;;201.03;56.57;;;;;;;;;;5010342;28;20896;-45
2024/01/06 07:48:29;;;;;;;208.95;62.13;;;;;;;;;;5004253;28;20494;-44
2024/01/06 07:50:55;;;;;;;198.30;56.50;;;;;;;;;;5002991;28;20246;-45
2024/01/06 07:53:21;;;;;;;189.63;53.70;;;;;;;;;;5003016;28;20216;-45
2024/01/06 07:55:47;;;;;;;198.50;55.53;;;;;;;;;;5004338;28;20499;-44
2024/01/06 07:58:13;;;;;;;200.60;56.25;;;;;;;;;;5007579;28;20477;-45
2024/01/06 08:00:39;;;;;;;194.50;53.35;;;;;;;;;;5005891;28;20594;-46
2024/01/06 08:03:06;;;;;;;196.63;54.00;;;;;;;;;;5011604;28;20206;-45
2024/01/06 08:05:32;;;;;;;191.32;52.92;;;;;;;;;;5011732;28;20271;-45
2024/01/06 08:07:58;;;;;;;189.13;53.47;;;;;;;;;;5011660;28;20176;-44
2024/01/06 08:10:24;;;;;;;171.65;49.75;;;;;;;;;;5011567;28;20590;-44
2024/01/06 08:12:50;;;;;;;138.00;43.15;;;;;;;;;;5014200;28;20695;-46
2024/01/06 08:15:16;;;;;;;166.33;51.47;;;;;;;;;;5007488;28;21242;-45
2024/01/06 08:17:42;;;;;;;94.77;42.73;;;;;;;;;;5009961;28;20499;-45
2024/01/06 08:20:09;;;;;;;145.65;52.20;;;;;;;;;;5011958;28;20414;-46
2024/01/06 08:22:34;;;;;;;162.20;53.20;;;;;;;;;;5009251;28;20180;-45
2024/01/06 08:25:00;;;;;;;61.67;34.93;;;;;;;;;;5015463;28;20528;-45
2024/01/06 08:27:27;;;;;;;134.60;43.47;;;;;;;;;;5015373;28;20842;-45
2024/01/06 08:29:53;;;;;;;91.95;44.08;;;;;;;;;;5006128;28;20575;-46
2024/01/06 08:32:18;;;;;;;64.73;38.83;;;;;;;;;;5007364;28;20247;-46
2024/01/06 08:34:44;;;;;;;127.20;43.23;;;;;;;;;;5009106;28;20816;-45
2024/01/06 08:37:10;;;;;;;170.27;55.03;;;;;;;;;;5011887;28;20411;-46
2024/01/06 08:39:36;;;;;;;125.47;44.30;;;;;;;;;;5008947;28;20461;-45
2024/01/06 08:42:02;;;;;;;182.37;55.77;;;;;;;;;;5007000;28;20483;-45
2024/01/06 08:44:28;;;;;;;172.80;53.58;;;;;;;;;;5015612;28;20396;-45
2024/01/06 08:46:54;;;;;;;177.93;54.10;;;;;;;;;;5015170;28;20181;-44
2024/01/06 08:49:20;;;;;;;184.17;54.20;;;;;;;;;;5014799;28;20181;-45
2024/01/06 08:51:46;;;;;;;195.30;54.80;;;;;;;;;;5014970;28;20434;-45
2024/01/06 08:54:13;;;;;;;194.77;54.60;;;;;;;;;;5012521;28;20466;-46
2024/01/06 08:56:39;;;;;;;197.18;56.45;;;;;;;;;;5009035;28;20470;-45
2024/01/06 08:59:05;;;;;;;197.27;57.27;;;;;;;;;;5014748;28;20224;-44
2024/01/06 09:01:31;;;;;;;139.10;42.65;;;;;;;;;;5014959;28;20403;-45
2024/01/06 09:03:57;;;;;;;196.68;56.60;;;;;;;;;;5014614;28;20673;-45
2024/01/06 09:06:23;;;;;;;196.48;56.13;;;;;;;;;;5014793;28;20177;-45
2024/01/06 09:08:50;;;;;;;198.15;58.20;;;;;;;;;;5014537;28;20184;-45
2024/01/06 09:11:15;;;;;;;197.40;56.13;;;;;;;;;;5014500;28;20179;-46
2024/01/06 09:13:41;;;;;;;194.47;56.53;;;;;;;;;;5008544;28;20200;-46
2024/01/06 09:16:08;;;;;;;199.05;57.03;;;;;;;;;;5011098;28;20418;-44
2024/01/06 09:18:33;;;;;;;204.10;60.95;;;;;;;;;;5007869;28;20269;-45
2024/01/06 09:20:59;;;;;;;195.57;55.83;;;;;;;;;;5006461;28;20652;-45
2024/01/06 09:23:25;;;;;;;198.67;56.57;;;;;;;;;;5005751;28;20915;-45
2024/01/06 09:25:52;;;;;;;196.55;55.60;;;;;;;;;;5006832;28;20420;-45
2024/01/06 09:28:18;;;;;;;199.32;58.38;;;;;;;;;;5013694;28;20180;-44
2024/01/06 09:30:44;;;;;;;197.48;56.42;;;;;;;;;;5014294;28;20264;-44
2024/01/06 09:33:10;;;;;;;195.63;56.03;;;;;;;;;;5014236;28;20287;-45
2024/01/06 09:35:36;;;;;;;193.65;55.00;;;;;;;;;;5014081;28;20200;-45
2024/01/06 09:38:02;;;;;;;186.63;53.57;;;;;;;;;;5014197;28;20640;-45
2024/01/06 09:40:32;;;;;;;196.10;56.37;;;;;;;;;;5012636;28;20415;-44
2024/01/06 09:42:58;;;;;;;191.65;54.45;;;;;;;;;;5014029;28;20427;-45
2024/01/06 09:45:24;;;;;;;194.43;56.08;;;;;;;;;;5014103;28;20180;-45
2024/01/06 09:47:51;;;;;;;190.70;53.00;;;;;;;;;;5014044;28;20667;-46
2024/01/06 09:50:20;;;;;;;195.82;55.30;;;;;;;;;;5013757;28;20950;-45
2024/01/06 09:52:53;;;;;;;192.07;55.03;;;;;;;;;;5014086;28;20227;-45
2024/01/06 09:55:21;;;;;;;194.15;55.28;;;;;;;;;;5015705;28;20204;-44
2024/01/06 09:57:46;;;;;;;193.50;53.97;;;;;;;;;;5016063;28;20173;-44
2024/01/06 10:00:13;;;;;;;192.97;53.40;;;;;;;;;;5004824;28;20677;-44
2024/01/06 10:02:40;;;;;;;189.32;53.58;;;;;;;;;;5009517;28;20435;-44
2024/01/06 10:05:06;;;;;;;183.25;52.65;;;;;;;;;;5012404;28;20177;-45
2024/01/06 10:07:32;;;;;;;201.05;55.90;;;;;;;;;;5015054;28;20251;-44
2024/01/06 10:09:58;;;;;;;195.77;52.87;;;;;;;;;;5015871;28;20211;-44
2024/01/06 10:12:25;;;;;;;192.83;52.90;;;;;;;;;;4999934;28;20440;-45
2024/01/06 10:14:51;;;;;;;71.82;25.65;;;;;;;;;;5007522;28;20454;-44
2024/01/06 10:17:18;;;;;;;195.85;54.55;;;;;;;;;;5008299;28;20292;-44
2024/01/06 10:19:45;;;;;;;195.38;54.13;;;;;;;;;;5014875;28;20212;-44
2024/01/06 10:22:11;;;;;;;196.02;54.30;;;;;;;;;;5015195;28;20168;-44
2024/01/06 10:24:40;;;;;;;188.27;55.03;;;;;;;;;;4995357;28;20169;-44
2024/01/06 10:27:08;;;;;;;182.00;52.17;;;;;;;;;;5009625;28;20414;-44
2024/01/06 10:29:34;;;;;;;197.40;54.45;;;;;;;;;;5002058;28;20181;-44
2024/01/06 10:32:00;;;;;;;196.95;54.85;;;;;;;;;;5003788;28;20211;-44
2024/01/06 10:34:27;;;;;;;197.18;53.60;;;;;;;;;;5009422;28;20209;-44
2024/01/06 10:36:53;;;;;;;194.02;52.47;;;;;;;;;;4995466;28;20184;-44
2024/01/06 10:39:20;;;;;;;196.37;53.50;;;;;;;;;;5014882;28;20164;-45
2024/01/06 10:41:46;;;;;;;184.25;51.38;;;;;;;;;;4999255;28;20412;-45
2024/01/06 10:44:13;;;;;;;177.18;49.80;;;;;;;;;;5007108;28;20196;-44
2024/01/06 10:46:39;;;;;;;187.35;52.55;;;;;;;;;;5004743;28;20180;-44
2024/01/06 10:49:12;;;;;;;194.20;53.80;;;;;;;;;;4997122;28;20655;-44
2024/01/06 10:51:38;;;;;;;186.82;53.10;;;;;;;;;;5011716;28;20586;-43
2024/01/06 10:54:05;;;;;;;188.02;55.05;;;;;;;;;;4994759;28;20238;-44
2024/01/06 10:56:36;;;;;;;195.55;53.28;;;;;;;;;;5011721;28;20176;-44
2024/01/06 10:59:03;;;;;;;196.98;55.30;;;;;;;;;;4999085;28;20231;-44
2024/01/06 11:01:30;;;;;;;195.30;53.38;;;;;;;;;;5002550;28;20211;-44
2024/01/06 11:03:56;;;;;;;196.85;55.00;;;;;;;;;;5007104;28;20196;-44
2024/01/06 11:06:22;;;;;;;198.52;56.53;;;;;;;;;;4993933;28;20180;-44
2024/01/06 11:09:07;;;;;;;195.63;53.78;;;;;;;;;;5012578;28;20171;-43
2024/01/06 11:11:35;;;;;;;194.75;53.00;;;;;;;;;;4993055;28;20177;-44
2024/01/06 11:14:20;;;;;;;194.90;54.65;;;;;;;;;;5008665;28;20196;-44
2024/01/06 11:16:46;;;;;;;197.25;56.05;;;;;;;;;;4997767;28;20184;-44
2024/01/06 11:19:30;;;;;;;197.93;55.63;;;;;;;;;;5002921;28;20168;-44
2024/01/06 11:21:56;;;;;;;120.72;37.05;;;;;;;;;;5003487;28;20184;-43
2024/01/06 11:24:25;;;;;;;197.27;53.80;;;;;;;;;;4997349;28;20208;-43
2024/01/06 11:26:52;;;;;;;199.75;54.92;;;;;;;;;;5011040;28;20407;-44
2024/01/06 11:29:21;;;;;;;200.20;56.25;;;;;;;;;;4992935;28;20228;-44
2024/01/06 11:32:06;;;;;;;200.57;55.85;;;;;;;;;;5009948;28;20526;-44
2024/01/06 11:34:37;;;;;;;195.07;54.45;;;;;;;;;;4996216;28;20200;-43
2024/01/06 11:37:04;;;;;;;199.43;54.20;;;;;;;;;;5004926;28;20266;-44
2024/01/06 11:39:38;;;;;;;200.25;56.30;;;;;;;;;;5003236;28;20236;-43
2024/01/06 11:42:04;;;;;;;168.55;46.72;;;;;;;;;;4997898;28;20175;-44
2024/01/06 11:44:30;;;;;;;196.38;55.30;;;;;;;;;;5010707;28;20172;-44
2024/01/06 11:46:57;;;;;;;189.17;54.67;;;;;;;;;;4992581;28;20652;-44
2024/01/06 11:49:28;;;;;;;192.90;54.53;;;;;;;;;;5009425;28;20403;-44
2024/01/06 11:51:54;;;;;;;170.07;47.72;;;;;;;;;;4997982;28;20187;-45
2024/01/06 11:54:21;;;;;;;59.97;35.15;;;;;;;;;;5001691;28;20283;-45
2024/01/06 11:56:47;;;;;;;78.32;45.63;;;;;;;;;;5011521;28;20667;-44
2024/01/06 11:59:13;;;;;;;28.40;26.27;;;;;;;;;;5009862;28;20183;-44
2024/01/06 12:01:39;;;;;;;136.40;43.07;;;;;;;;;;4992543;28;20439;-44
2024/01/06 12:04:05;;;;;;;151.75;51.60;;;;;;;;;;5009618;28;20950;-44
2024/01/06 12:06:32;;;;;;;191.52;54.92;;;;;;;;;;4998191;28;20184;-44
2024/01/06 12:09:08;;;;;;;127.88;45.47;;;;;;;;;;5000719;28;20216;-44
2024/01/06 12:11:37;;;;;;;190.48;53.60;;;;;;;;;;5013401;28;20168;-44
2024/01/06 12:14:03;;;;;;;169.40;49.05;;;;;;;;;;5016574;28;20211;-44
2024/01/06 12:16:32;;;;;;;145.13;45.38;;;;;;;;;;5012987;28;20173;-44
2024/01/06 12:19:00;;;;;;;183.32;55.90;;;;;;;;;;4992361;28;20187;-46
2024/01/06 12:21:26;;;;;;;162.45;47.55;;;;;;;;;;5007668;28;20528;-45
2024/01/06 12:23:52;;;;;;;181.27;53.38;;;;;;;;;;4999949;28;20197;-45
2024/01/06 12:26:18;;;;;;;186.27;55.08;;;;;;;;;;4998522;28;20654;-46
2024/01/06 12:28:45;;;;;;;183.77;52.75;;;;;;;;;;5013898;28;20190;-45
2024/01/06 12:31:12;;;;;;;118.28;45.38;;;;;;;;;;5012586;28;20184;-45
2024/01/06 12:33:38;;;;;;;67.65;32.33;;;;;;;;;;5010705;28;20665;-44
2024/01/06 12:36:05;;;;;;;162.70;52.70;;;;;;;;;;4995692;28;20738;-45
2024/01/06 12:38:31;;;;;;;203.40;67.80;;;;;;;;;;5002564;28;20231;-46
2024/01/06 12:40:56;;;;;;;183.50;51.73;;;;;;;;;;5002915;28;20169;-44
2024/01/06 12:43:22;;;;;;;187.93;54.40;;;;;;;;;;4995038;28;20434;-46
2024/01/06 12:45:52;;;;;;;94.50;34.50;;;;;;;;;;5011549;28;20636;-45
2024/01/06 12:48:18;;;;;;;167.70;50.65;;;;;;;;;;4992204;28;20443;-45
2024/01/06 12:50:44;;;;;;;142.53;51.63;;;;;;;;;;5007006;28;20173;-45
2024/01/06 12:53:12;;;;;;;126.25;50.58;;;;;;;;;;5000010;28;20478;-45
2024/01/06 12:55:39;;;;;;;96.18;39.42;;;;;;;;;;5006777;28;20203;-45
2024/01/06 12:58:05;;;;;;;69.18;33.08;;;;;;;;;;5009067;28;20251;-44
2024/01/06 13:00:31;;;;;;;130.05;45.05;;;;;;;;;;4995237;28;20173;-46
2024/01/06 13:02:57;;;;;;;147.35;48.13;;;;;;;;;;5014505;28;20199;-45
2024/01/06 13:05:23;;;;;;;57.30;38.77;;;;;;;;;;4999610;28;20665;-45
2024/01/06 13:07:49;;;;;;;77.13;36.33;;;;;;;;;;5006340;28;20418;-44
2024/01/06 13:10:15;;;;;;;113.73;45.70;;;;;;;;;;5007525;28;20448;-45
2024/01/06 13:12:42;;;;;;;53.90;41.70;;;;;;;;;;4997990;28;20439;-45
2024/01/06 13:15:11;;;;;;;21.73;19.50;;;;;;;;;;5014466;28;20581;-46
2024/01/06 13:17:37;;;;;;;69.70;37.38;;;;;;;;;;5015278;28;20667;-45
2024/01/06 13:20:04;;;;;;;80.95;36.80;;;;;;;;;;4999139;28;20185;-45
2024/01/06 13:22:30;;;;;;;103.68;39.28;;;;;;;;;;5006138;28;20204;-45
2024/01/06 13:24:56;;;;;;;155.30;49.70;;;;;;;;;;5007182;28;20180;-45
2024/01/06 13:27:23;;;;;;;143.73;43.78;;;;;;;;;;4997981;28;20180;-45
2024/01/06 13:29:49;;;;;;;156.60;49.38;;;;;;;;;;5014323;28;20176;-45
2024/01/06 13:32:15;;;;;;;177.93;52.47;;;;;;;;;;4995450;28;20177;-45
2024/01/06 13:34:41;;;;;;;162.65;50.28;;;;;;;;;;5009403;28;20235;-45
2024/01/06 13:37:10;;;;;;;180.98;53.90;;;;;;;;;;5003538;28;20304;-46
2024/01/06 13:39:36;;;;;;;184.10;53.35;;;;;;;;;;5001586;28;20176;-45
2024/01/06 13:42:03;;;;;;;185.60;52.80;;;;;;;;;;5011121;28;20184;-45
2024/01/06 13:44:29;;;;;;;188.93;54.28;;;;;;;;;;4994704;28;20412;-45
2024/01/06 13:46:55;;;;;;;60.92;24.45;;;;;;;;;;5013551;28;20188;-45
2024/01/06 13:49:22;;;;;;;12.57;11.33;;;;;;;;;;4999018;28;20638;-45
2024/01/06 13:51:48;;;;;;;11.15;10.02;;;;;;;;;;5005473;28;20411;-45
2024/01/06 13:54:14;;;;;;;27.73;14.43;;;;;;;;;;5011012;28;20231;-43
2024/01/06 13:56:40;;;;;;;188.48;54.72;;;;;;;;;;5013799;28;20188;-44
2024/01/06 13:59:06;;;;;;;61.87;24.13;;;;;;;;;;5013846;28;20173;-44
2024/01/06 14:01:32;;;;;;;173.40;51.13;;;;;;;;;;4995463;28;20412;-44